sensor_id;sensor_type;location;lat;lon;timestamp;P1;durP1;ratioP1;P2;durP2;ratioP2
51214;SDS011;63849;47.546;19.254;2023-03-08T00:01:16;51.00;;;30.98;;
51214;SDS011;63849;47.546;19.254;2023-03-08T00:03:49;52.47;;;32.55;;
51214;SDS011;63849;47.546;19.254;2023-03-08T00:06:16;63.28;;;38.95;;
51214;SDS011;63849;47.546;19.254;2023-03-08T00:08:42;58.20;;;35.28;;
51214;SDS011;63849;47.546;19.254;2023-03-08T00:11:11;54.60;;;34.30;;
51214;SDS011;63849;47.546;19.254;2023-03-08T00:13:37;47.35;;;30.85;;
51214;SDS011;63849;47.546;19.254;2023-03-08T00:16:04;45.67;;;30.75;;
51214;SDS011;63849;47.546;19.254;2023-03-08T00:18:32;48.92;;;31.35;;
51214;SDS011;63849;47.546;19.254;2023-03-08T00:21:04;43.55;;;30.50;;
51214;SDS011;63849;47.546;19.254;2023-03-08T00:23:34;64.43;;;39.22;;
51214;SDS011;63849;47.546;19.254;2023-03-08T00:26:00;48.70;;;33.53;;
51214;SDS011;63849;47.546;19.254;2023-03-08T00:28:26;55.47;;;36.80;;
51214;SDS011;63849;47.546;19.254;2023-03-08T00:30:56;55.58;;;36.40;;
51214;SDS011;63849;47.546;19.254;2023-03-08T00:33:36;55.38;;;35.42;;
51214;SDS011;63849;47.546;19.254;2023-03-08T00:36:06;52.67;;;34.30;;
51214;SDS011;63849;47.546;19.254;2023-03-08T00:38:37;48.42;;;32.88;;
51214;SDS011;63849;47.546;19.254;2023-03-08T00:41:03;47.80;;;33.25;;
51214;SDS011;63849;47.546;19.254;2023-03-08T00:43:29;50.85;;;34.67;;
51214;SDS011;63849;47.546;19.254;2023-03-08T00:45:55;48.45;;;33.33;;
51214;SDS011;63849;47.546;19.254;2023-03-08T00:48:21;54.33;;;37.13;;
51214;SDS011;63849;47.546;19.254;2023-03-08T00:50:48;66.30;;;42.65;;
51214;SDS011;63849;47.546;19.254;2023-03-08T00:53:14;53.55;;;35.25;;
51214;SDS011;63849;47.546;19.254;2023-03-08T00:55:47;58.88;;;39.03;;
51214;SDS011;63849;47.546;19.254;2023-03-08T00:58:14;58.15;;;38.28;;
51214;SDS011;63849;47.546;19.254;2023-03-08T01:00:40;52.63;;;34.95;;
51214;SDS011;63849;47.546;19.254;2023-03-08T01:03:05;52.33;;;34.58;;
51214;SDS011;63849;47.546;19.254;2023-03-08T01:05:31;57.40;;;37.45;;
51214;SDS011;63849;47.546;19.254;2023-03-08T01:07:57;57.70;;;37.90;;
51214;SDS011;63849;47.546;19.254;2023-03-08T01:10:23;51.55;;;34.92;;
51214;SDS011;63849;47.546;19.254;2023-03-08T01:12:48;50.92;;;35.25;;
51214;SDS011;63849;47.546;19.254;2023-03-08T01:15:14;48.10;;;34.70;;
51214;SDS011;63849;47.546;19.254;2023-03-08T01:17:40;54.00;;;34.28;;
51214;SDS011;63849;47.546;19.254;2023-03-08T01:20:06;51.60;;;34.88;;
51214;SDS011;63849;47.546;19.254;2023-03-08T01:22:32;53.15;;;34.95;;
51214;SDS011;63849;47.546;19.254;2023-03-08T01:24:58;46.33;;;31.48;;
51214;SDS011;63849;47.546;19.254;2023-03-08T01:27:24;45.83;;;30.88;;
51214;SDS011;63849;47.546;19.254;2023-03-08T01:29:50;46.03;;;30.70;;
51214;SDS011;63849;47.546;19.254;2023-03-08T01:32:15;44.28;;;30.77;;
51214;SDS011;63849;47.546;19.254;2023-03-08T01:34:41;51.38;;;32.40;;
51214;SDS011;63849;47.546;19.254;2023-03-08T01:37:07;42.22;;;30.25;;
51214;SDS011;63849;47.546;19.254;2023-03-08T01:39:33;46.90;;;32.05;;
51214;SDS011;63849;47.546;19.254;2023-03-08T01:42:01;46.75;;;30.55;;
51214;SDS011;63849;47.546;19.254;2023-03-08T01:44:47;40.55;;;29.08;;
51214;SDS011;63849;47.546;19.254;2023-03-08T01:47:33;45.33;;;29.83;;
51214;SDS011;63849;47.546;19.254;2023-03-08T01:50:04;45.67;;;30.65;;
51214;SDS011;63849;47.546;19.254;2023-03-08T01:52:45;43.92;;;29.20;;
51214;SDS011;63849;47.546;19.254;2023-03-08T01:55:15;42.30;;;28.67;;
51214;SDS011;63849;47.546;19.254;2023-03-08T01:57:45;46.60;;;31.38;;
51214;SDS011;63849;47.546;19.254;2023-03-08T02:00:20;48.55;;;32.33;;
51214;SDS011;63849;47.546;19.254;2023-03-08T02:03:08;51.08;;;31.63;;
51214;SDS011;63849;47.546;19.254;2023-03-08T02:05:38;46.10;;;30.67;;
51214;SDS011;63849;47.546;19.254;2023-03-08T02:08:06;45.85;;;31.48;;
51214;SDS011;63849;47.546;19.254;2023-03-08T02:10:32;49.83;;;32.35;;
51214;SDS011;63849;47.546;19.254;2023-03-08T02:12:58;49.15;;;32.15;;
51214;SDS011;63849;47.546;19.254;2023-03-08T02:15:25;48.03;;;31.27;;
51214;SDS011;63849;47.546;19.254;2023-03-08T02:17:51;51.35;;;32.78;;
51214;SDS011;63849;47.546;19.254;2023-03-08T02:20:18;43.92;;;30.05;;
51214;SDS011;63849;47.546;19.254;2023-03-08T02:22:48;47.38;;;31.25;;
51214;SDS011;63849;47.546;19.254;2023-03-08T02:25:18;49.50;;;31.33;;
51214;SDS011;63849;47.546;19.254;2023-03-08T02:27:46;46.55;;;31.20;;
51214;SDS011;63849;47.546;19.254;2023-03-08T02:30:13;47.55;;;30.80;;
51214;SDS011;63849;47.546;19.254;2023-03-08T02:32:41;48.67;;;32.60;;
51214;SDS011;63849;47.546;19.254;2023-03-08T02:35:07;61.50;;;38.10;;
51214;SDS011;63849;47.546;19.254;2023-03-08T02:37:33;79.78;;;42.75;;
51214;SDS011;63849;47.546;19.254;2023-03-08T02:39:59;87.47;;;43.65;;
51214;SDS011;63849;47.546;19.254;2023-03-08T02:42:25;75.13;;;44.88;;
51214;SDS011;63849;47.546;19.254;2023-03-08T02:44:51;79.70;;;43.08;;
51214;SDS011;63849;47.546;19.254;2023-03-08T02:47:17;86.22;;;45.67;;
51214;SDS011;63849;47.546;19.254;2023-03-08T02:49:42;77.70;;;43.63;;
51214;SDS011;63849;47.546;19.254;2023-03-08T02:52:08;84.68;;;45.58;;
51214;SDS011;63849;47.546;19.254;2023-03-08T02:54:34;84.55;;;45.15;;
51214;SDS011;63849;47.546;19.254;2023-03-08T02:57:00;77.90;;;43.75;;
51214;SDS011;63849;47.546;19.254;2023-03-08T02:59:25;72.60;;;39.63;;
51214;SDS011;63849;47.546;19.254;2023-03-08T03:01:51;71.70;;;41.70;;
51214;SDS011;63849;47.546;19.254;2023-03-08T03:04:17;75.28;;;43.03;;
51214;SDS011;63849;47.546;19.254;2023-03-08T03:06:43;72.53;;;41.85;;
51214;SDS011;63849;47.546;19.254;2023-03-08T03:09:09;75.45;;;41.60;;
51214;SDS011;63849;47.546;19.254;2023-03-08T03:11:35;63.13;;;37.40;;
51214;SDS011;63849;47.546;19.254;2023-03-08T03:14:01;69.78;;;40.80;;
51214;SDS011;63849;47.546;19.254;2023-03-08T03:16:27;70.85;;;40.83;;
51214;SDS011;63849;47.546;19.254;2023-03-08T03:18:55;67.13;;;41.10;;
51214;SDS011;63849;47.546;19.254;2023-03-08T03:21:22;68.03;;;40.25;;
51214;SDS011;63849;47.546;19.254;2023-03-08T03:23:48;65.40;;;39.47;;
51214;SDS011;63849;47.546;19.254;2023-03-08T03:26:16;65.55;;;38.67;;
51214;SDS011;63849;47.546;19.254;2023-03-08T03:28:48;76.82;;;43.60;;
51214;SDS011;63849;47.546;19.254;2023-03-08T03:31:15;74.13;;;44.55;;
51214;SDS011;63849;47.546;19.254;2023-03-08T03:33:43;75.53;;;42.85;;
51214;SDS011;63849;47.546;19.254;2023-03-08T03:36:11;70.78;;;42.83;;
51214;SDS011;63849;47.546;19.254;2023-03-08T03:38:39;75.35;;;41.78;;
51214;SDS011;63849;47.546;19.254;2023-03-08T03:41:06;72.43;;;42.58;;
51214;SDS011;63849;47.546;19.254;2023-03-08T03:43:33;73.90;;;41.42;;
51214;SDS011;63849;47.546;19.254;2023-03-08T03:46:01;63.90;;;41.40;;
51214;SDS011;63849;47.546;19.254;2023-03-08T03:48:29;64.03;;;38.92;;
51214;SDS011;63849;47.546;19.254;2023-03-08T03:51:03;60.50;;;38.60;;
51214;SDS011;63849;47.546;19.254;2023-03-08T03:53:31;64.40;;;37.92;;
51214;SDS011;63849;47.546;19.254;2023-03-08T03:56:05;60.28;;;37.42;;
51214;SDS011;63849;47.546;19.254;2023-03-08T03:58:39;60.47;;;36.13;;
51214;SDS011;63849;47.546;19.254;2023-03-08T04:01:06;57.33;;;35.30;;
51214;SDS011;63849;47.546;19.254;2023-03-08T04:03:38;59.55;;;36.83;;
51214;SDS011;63849;47.546;19.254;2023-03-08T04:08:34;57.22;;;35.72;;
51214;SDS011;63849;47.546;19.254;2023-03-08T04:11:06;54.15;;;34.40;;
51214;SDS011;63849;47.546;19.254;2023-03-08T04:13:33;55.38;;;35.45;;
51214;SDS011;63849;47.546;19.254;2023-03-08T04:15:59;58.17;;;34.25;;
51214;SDS011;63849;47.546;19.254;2023-03-08T04:18:32;53.85;;;34.10;;
51214;SDS011;63849;47.546;19.254;2023-03-08T04:20:57;53.90;;;34.42;;
51214;SDS011;63849;47.546;19.254;2023-03-08T04:23:23;53.15;;;33.15;;
51214;SDS011;63849;47.546;19.254;2023-03-08T04:25:49;50.58;;;33.28;;
51214;SDS011;63849;47.546;19.254;2023-03-08T04:28:14;56.08;;;33.25;;
51214;SDS011;63849;47.546;19.254;2023-03-08T04:30:40;56.15;;;33.42;;
51214;SDS011;63849;47.546;19.254;2023-03-08T04:33:06;53.83;;;34.30;;
51214;SDS011;63849;47.546;19.254;2023-03-08T04:35:32;54.63;;;34.08;;
51214;SDS011;63849;47.546;19.254;2023-03-08T04:37:58;56.55;;;34.63;;
51214;SDS011;63849;47.546;19.254;2023-03-08T04:40:23;54.15;;;34.13;;
51214;SDS011;63849;47.546;19.254;2023-03-08T04:42:49;56.50;;;34.50;;
51214;SDS011;63849;47.546;19.254;2023-03-08T04:45:15;56.63;;;34.75;;
51214;SDS011;63849;47.546;19.254;2023-03-08T04:47:41;60.13;;;35.90;;
51214;SDS011;63849;47.546;19.254;2023-03-08T04:50:07;55.80;;;35.25;;
51214;SDS011;63849;47.546;19.254;2023-03-08T04:52:33;57.97;;;35.08;;
51214;SDS011;63849;47.546;19.254;2023-03-08T04:54:59;57.88;;;35.65;;
51214;SDS011;63849;47.546;19.254;2023-03-08T04:57:25;74.70;;;43.60;;
51214;SDS011;63849;47.546;19.254;2023-03-08T04:59:51;76.18;;;43.25;;
51214;SDS011;63849;47.546;19.254;2023-03-08T05:02:16;68.57;;;41.08;;
51214;SDS011;63849;47.546;19.254;2023-03-08T05:04:42;65.38;;;37.92;;
51214;SDS011;63849;47.546;19.254;2023-03-08T05:07:08;69.18;;;39.63;;
51214;SDS011;63849;47.546;19.254;2023-03-08T05:09:34;63.47;;;39.50;;
51214;SDS011;63849;47.546;19.254;2023-03-08T05:12:00;57.97;;;35.97;;
51214;SDS011;63849;47.546;19.254;2023-03-08T05:14:26;59.10;;;37.08;;
51214;SDS011;63849;47.546;19.254;2023-03-08T05:16:53;61.42;;;35.63;;
51214;SDS011;63849;47.546;19.254;2023-03-08T05:19:20;58.85;;;35.08;;
51214;SDS011;63849;47.546;19.254;2023-03-08T05:21:46;59.33;;;35.65;;
51214;SDS011;63849;47.546;19.254;2023-03-08T05:24:12;66.35;;;39.60;;
51214;SDS011;63849;47.546;19.254;2023-03-08T05:26:38;60.88;;;38.00;;
51214;SDS011;63849;47.546;19.254;2023-03-08T05:29:03;61.45;;;36.70;;
51214;SDS011;63849;47.546;19.254;2023-03-08T05:31:30;57.05;;;36.15;;
51214;SDS011;63849;47.546;19.254;2023-03-08T05:33:57;59.22;;;35.92;;
51214;SDS011;63849;47.546;19.254;2023-03-08T05:36:23;53.15;;;34.10;;
51214;SDS011;63849;47.546;19.254;2023-03-08T05:38:55;55.83;;;35.42;;
51214;SDS011;63849;47.546;19.254;2023-03-08T05:41:21;52.60;;;33.20;;
51214;SDS011;63849;47.546;19.254;2023-03-08T05:43:46;49.95;;;31.63;;
51214;SDS011;63849;47.546;19.254;2023-03-08T05:46:13;53.45;;;33.85;;
51214;SDS011;63849;47.546;19.254;2023-03-08T05:48:43;51.95;;;33.70;;
51214;SDS011;63849;47.546;19.254;2023-03-08T05:51:10;53.30;;;35.78;;
51214;SDS011;63849;47.546;19.254;2023-03-08T05:53:40;60.92;;;40.20;;
51214;SDS011;63849;47.546;19.254;2023-03-08T05:56:07;62.70;;;39.85;;
51214;SDS011;63849;47.546;19.254;2023-03-08T05:58:41;90.05;;;49.50;;
51214;SDS011;63849;47.546;19.254;2023-03-08T06:01:14;169.95;;;84.00;;
51214;SDS011;63849;47.546;19.254;2023-03-08T06:03:45;158.70;;;81.60;;
51214;SDS011;63849;47.546;19.254;2023-03-08T06:06:12;128.93;;;68.15;;
51214;SDS011;63849;47.546;19.254;2023-03-08T06:08:38;72.03;;;44.70;;
51214;SDS011;63849;47.546;19.254;2023-03-08T06:11:04;59.08;;;35.92;;
51214;SDS011;63849;47.546;19.254;2023-03-08T06:13:31;55.15;;;34.15;;
51214;SDS011;63849;47.546;19.254;2023-03-08T06:15:58;47.97;;;31.27;;
51214;SDS011;63849;47.546;19.254;2023-03-08T06:18:27;50.20;;;30.70;;
51214;SDS011;63849;47.546;19.254;2023-03-08T06:21:00;46.00;;;30.57;;
51214;SDS011;63849;47.546;19.254;2023-03-08T06:23:34;48.05;;;32.28;;
51214;SDS011;63849;47.546;19.254;2023-03-08T06:26:03;55.03;;;35.35;;
51214;SDS011;63849;47.546;19.254;2023-03-08T06:28:31;55.00;;;36.00;;
51214;SDS011;63849;47.546;19.254;2023-03-08T06:30:57;44.75;;;27.40;;
51214;SDS011;63849;47.546;19.254;2023-03-08T06:33:27;39.53;;;25.42;;
51214;SDS011;63849;47.546;19.254;2023-03-08T06:36:14;34.63;;;23.45;;
51214;SDS011;63849;47.546;19.254;2023-03-08T06:38:41;34.03;;;24.17;;
51214;SDS011;63849;47.546;19.254;2023-03-08T06:41:08;35.72;;;23.15;;
51214;SDS011;63849;47.546;19.254;2023-03-08T06:43:35;35.38;;;22.40;;
51214;SDS011;63849;47.546;19.254;2023-03-08T06:46:02;35.53;;;24.02;;
51214;SDS011;63849;47.546;19.254;2023-03-08T06:48:29;41.75;;;26.60;;
51214;SDS011;63849;47.546;19.254;2023-03-08T06:50:55;47.45;;;29.88;;
51214;SDS011;63849;47.546;19.254;2023-03-08T06:53:21;50.97;;;29.77;;
51214;SDS011;63849;47.546;19.254;2023-03-08T06:55:46;56.05;;;34.58;;
51214;SDS011;63849;47.546;19.254;2023-03-08T06:58:12;61.20;;;37.92;;
51214;SDS011;63849;47.546;19.254;2023-03-08T07:00:38;49.40;;;32.20;;
51214;SDS011;63849;47.546;19.254;2023-03-08T07:03:04;35.50;;;24.83;;
51214;SDS011;63849;47.546;19.254;2023-03-08T07:05:29;28.35;;;18.83;;
51214;SDS011;63849;47.546;19.254;2023-03-08T07:07:55;26.70;;;17.40;;
51214;SDS011;63849;47.546;19.254;2023-03-08T07:10:21;24.52;;;17.65;;
51214;SDS011;63849;47.546;19.254;2023-03-08T07:12:48;26.27;;;17.25;;
51214;SDS011;63849;47.546;19.254;2023-03-08T07:15:16;22.55;;;16.10;;
51214;SDS011;63849;47.546;19.254;2023-03-08T07:17:47;25.83;;;17.45;;
51214;SDS011;63849;47.546;19.254;2023-03-08T07:20:16;23.73;;;16.17;;
51214;SDS011;63849;47.546;19.254;2023-03-08T07:22:44;24.73;;;16.60;;
51214;SDS011;63849;47.546;19.254;2023-03-08T07:25:10;27.20;;;17.88;;
51214;SDS011;63849;47.546;19.254;2023-03-08T07:27:37;24.52;;;16.55;;
51214;SDS011;63849;47.546;19.254;2023-03-08T07:30:03;25.55;;;16.00;;
51214;SDS011;63849;47.546;19.254;2023-03-08T07:32:29;24.25;;;17.08;;
51214;SDS011;63849;47.546;19.254;2023-03-08T07:34:55;22.60;;;15.60;;
51214;SDS011;63849;47.546;19.254;2023-03-08T07:37:21;28.33;;;17.48;;
51214;SDS011;63849;47.546;19.254;2023-03-08T07:39:48;24.40;;;16.92;;
51214;SDS011;63849;47.546;19.254;2023-03-08T07:42:13;25.67;;;16.20;;
51214;SDS011;63849;47.546;19.254;2023-03-08T07:44:39;23.40;;;16.23;;
51214;SDS011;63849;47.546;19.254;2023-03-08T07:47:05;22.85;;;15.63;;
51214;SDS011;63849;47.546;19.254;2023-03-08T07:49:31;27.50;;;16.38;;
51214;SDS011;63849;47.546;19.254;2023-03-08T07:51:57;24.77;;;16.60;;
51214;SDS011;63849;47.546;19.254;2023-03-08T07:54:23;24.33;;;15.75;;
51214;SDS011;63849;47.546;19.254;2023-03-08T07:56:52;24.50;;;16.80;;
51214;SDS011;63849;47.546;19.254;2023-03-08T07:59:18;22.08;;;16.70;;
51214;SDS011;63849;47.546;19.254;2023-03-08T08:01:44;23.90;;;16.33;;
51214;SDS011;63849;47.546;19.254;2023-03-08T08:04:10;24.27;;;16.08;;
51214;SDS011;63849;47.546;19.254;2023-03-08T08:06:37;24.23;;;15.98;;
51214;SDS011;63849;47.546;19.254;2023-03-08T08:09:04;21.33;;;15.20;;
51214;SDS011;63849;47.546;19.254;2023-03-08T08:11:30;21.55;;;15.70;;
51214;SDS011;63849;47.546;19.254;2023-03-08T08:13:57;27.25;;;15.98;;
51214;SDS011;63849;47.546;19.254;2023-03-08T08:16:22;21.20;;;15.02;;
51214;SDS011;63849;47.546;19.254;2023-03-08T08:18:50;22.58;;;15.57;;
51214;SDS011;63849;47.546;19.254;2023-03-08T08:21:17;25.50;;;16.00;;
51214;SDS011;63849;47.546;19.254;2023-03-08T08:23:43;22.48;;;16.75;;
51214;SDS011;63849;47.546;19.254;2023-03-08T08:26:13;24.33;;;16.60;;
51214;SDS011;63849;47.546;19.254;2023-03-08T08:28:44;30.02;;;17.83;;
51214;SDS011;63849;47.546;19.254;2023-03-08T08:31:13;23.08;;;16.27;;
51214;SDS011;63849;47.546;19.254;2023-03-08T08:33:41;26.50;;;17.55;;
51214;SDS011;63849;47.546;19.254;2023-03-08T08:36:10;29.02;;;18.58;;
51214;SDS011;63849;47.546;19.254;2023-03-08T08:38:37;24.27;;;17.95;;
51214;SDS011;63849;47.546;19.254;2023-03-08T08:41:05;24.73;;;16.35;;
51214;SDS011;63849;47.546;19.254;2023-03-08T08:43:32;24.42;;;16.60;;
51214;SDS011;63849;47.546;19.254;2023-03-08T08:45:59;20.13;;;14.30;;
51214;SDS011;63849;47.546;19.254;2023-03-08T08:48:26;24.92;;;16.15;;
51214;SDS011;63849;47.546;19.254;2023-03-08T08:50:52;22.27;;;14.25;;
51214;SDS011;63849;47.546;19.254;2023-03-08T08:53:18;26.67;;;17.73;;
51214;SDS011;63849;47.546;19.254;2023-03-08T08:55:44;20.65;;;12.77;;
51214;SDS011;63849;47.546;19.254;2023-03-08T08:58:11;17.45;;;11.98;;
51214;SDS011;63849;47.546;19.254;2023-03-08T09:00:37;17.50;;;12.73;;
51214;SDS011;63849;47.546;19.254;2023-03-08T09:03:03;17.58;;;12.82;;
51214;SDS011;63849;47.546;19.254;2023-03-08T09:05:30;17.17;;;12.73;;
51214;SDS011;63849;47.546;19.254;2023-03-08T09:07:57;17.23;;;12.20;;
51214;SDS011;63849;47.546;19.254;2023-03-08T09:10:25;15.90;;;12.10;;
51214;SDS011;63849;47.546;19.254;2023-03-08T09:12:53;18.55;;;13.02;;
51214;SDS011;63849;47.546;19.254;2023-03-08T09:15:19;14.07;;;11.40;;
51214;SDS011;63849;47.546;19.254;2023-03-08T09:17:46;16.35;;;11.45;;
51214;SDS011;63849;47.546;19.254;2023-03-08T09:20:12;17.35;;;11.70;;
51214;SDS011;63849;47.546;19.254;2023-03-08T09:22:38;16.23;;;12.10;;
51214;SDS011;63849;47.546;19.254;2023-03-08T09:25:05;16.05;;;11.27;;
51214;SDS011;63849;47.546;19.254;2023-03-08T09:27:31;19.88;;;11.88;;
51214;SDS011;63849;47.546;19.254;2023-03-08T09:29:58;16.73;;;12.68;;
51214;SDS011;63849;47.546;19.254;2023-03-08T09:32:24;18.83;;;11.85;;
51214;SDS011;63849;47.546;19.254;2023-03-08T09:34:50;16.33;;;11.65;;
51214;SDS011;63849;47.546;19.254;2023-03-08T09:37:17;15.10;;;10.65;;
51214;SDS011;63849;47.546;19.254;2023-03-08T09:39:43;16.30;;;11.00;;
51214;SDS011;63849;47.546;19.254;2023-03-08T09:42:22;18.65;;;11.45;;
51214;SDS011;63849;47.546;19.254;2023-03-08T09:45:04;16.83;;;11.30;;
51214;SDS011;63849;47.546;19.254;2023-03-08T09:50:24;17.35;;;11.02;;
51214;SDS011;63849;47.546;19.254;2023-03-08T09:52:50;16.10;;;11.00;;
51214;SDS011;63849;47.546;19.254;2023-03-08T09:55:22;14.38;;;10.95;;
51214;SDS011;63849;47.546;19.254;2023-03-08T09:57:54;14.25;;;10.85;;
51214;SDS011;63849;47.546;19.254;2023-03-08T10:00:30;15.55;;;11.70;;
51214;SDS011;63849;47.546;19.254;2023-03-08T10:08:22;13.30;;;10.85;;
51214;SDS011;63849;47.546;19.254;2023-03-08T10:11:00;17.08;;;10.98;;
51214;SDS011;63849;47.546;19.254;2023-03-08T10:13:33;15.35;;;11.50;;
51214;SDS011;63849;47.546;19.254;2023-03-08T10:16:26;17.15;;;11.77;;
51214;SDS011;63849;47.546;19.254;2023-03-08T10:21:55;14.13;;;9.98;;
51214;SDS011;63849;47.546;19.254;2023-03-08T10:24:27;14.05;;;10.35;;
51214;SDS011;63849;47.546;19.254;2023-03-08T10:27:29;15.68;;;11.45;;
51214;SDS011;63849;47.546;19.254;2023-03-08T10:29:59;20.20;;;13.35;;
51214;SDS011;63849;47.546;19.254;2023-03-08T10:32:27;17.23;;;12.98;;
51214;SDS011;63849;47.546;19.254;2023-03-08T10:35:03;19.33;;;12.20;;
51214;SDS011;63849;47.546;19.254;2023-03-08T10:37:30;18.15;;;13.48;;
51214;SDS011;63849;47.546;19.254;2023-03-08T10:39:59;20.40;;;13.75;;
51214;SDS011;63849;47.546;19.254;2023-03-08T10:42:29;17.92;;;13.25;;
51214;SDS011;63849;47.546;19.254;2023-03-08T10:45:15;15.75;;;12.40;;
51214;SDS011;63849;47.546;19.254;2023-03-08T10:47:59;17.17;;;12.80;;
51214;SDS011;63849;47.546;19.254;2023-03-08T10:50:29;17.20;;;12.52;;
51214;SDS011;63849;47.546;19.254;2023-03-08T10:53:06;20.08;;;13.60;;
51214;SDS011;63849;47.546;19.254;2023-03-08T10:58:21;19.23;;;13.43;;
51214;SDS011;63849;47.546;19.254;2023-03-08T11:00:56;18.48;;;12.68;;
51214;SDS011;63849;47.546;19.254;2023-03-08T11:03:24;19.70;;;13.23;;
51214;SDS011;63849;47.546;19.254;2023-03-08T11:05:55;22.58;;;15.57;;
51214;SDS011;63849;47.546;19.254;2023-03-08T11:08:27;21.73;;;14.60;;
51214;SDS011;63849;47.546;19.254;2023-03-08T11:11:09;18.88;;;14.00;;
51214;SDS011;63849;47.546;19.254;2023-03-08T11:13:43;17.45;;;13.10;;
51214;SDS011;63849;47.546;19.254;2023-03-08T11:33:48;21.63;;;13.85;;
51214;SDS011;63849;47.546;19.254;2023-03-08T11:38:46;21.45;;;12.90;;
51214;SDS011;63849;47.546;19.254;2023-03-08T11:58:14;16.45;;;12.38;;
51214;SDS011;63849;47.546;19.254;2023-03-08T12:00:47;13.63;;;10.23;;
51214;SDS011;63849;47.546;19.254;2023-03-08T12:03:20;15.63;;;10.70;;
51214;SDS011;63849;47.546;19.254;2023-03-08T12:08:21;18.85;;;10.48;;
51214;SDS011;63849;47.546;19.254;2023-03-08T12:10:54;13.82;;;10.00;;
51214;SDS011;63849;47.546;19.254;2023-03-08T12:21:48;17.70;;;10.60;;
51214;SDS011;63849;47.546;19.254;2023-03-08T12:27:16;12.52;;;8.82;;
51214;SDS011;63849;47.546;19.254;2023-03-08T12:29:54;12.63;;;8.50;;
51214;SDS011;63849;47.546;19.254;2023-03-08T12:32:43;13.52;;;8.32;;
51214;SDS011;63849;47.546;19.254;2023-03-08T12:35:31;12.48;;;8.38;;
51214;SDS011;63849;47.546;19.254;2023-03-08T12:37:59;11.10;;;7.90;;
51214;SDS011;63849;47.546;19.254;2023-03-08T12:40:43;13.05;;;8.57;;
51214;SDS011;63849;47.546;19.254;2023-03-08T12:43:15;14.95;;;9.25;;
51214;SDS011;63849;47.546;19.254;2023-03-08T12:48:32;12.70;;;8.50;;
51214;SDS011;63849;47.546;19.254;2023-03-08T12:56:18;16.02;;;9.35;;
51214;SDS011;63849;47.546;19.254;2023-03-08T12:59:22;14.77;;;9.60;;
51214;SDS011;63849;47.546;19.254;2023-03-08T13:02:03;13.80;;;10.07;;
51214;SDS011;63849;47.546;19.254;2023-03-08T13:05:00;16.42;;;10.30;;
51214;SDS011;63849;47.546;19.254;2023-03-08T13:07:53;11.90;;;8.55;;
51214;SDS011;63849;47.546;19.254;2023-03-08T13:10:39;13.82;;;9.63;;
51214;SDS011;63849;47.546;19.254;2023-03-08T13:13:26;14.88;;;8.93;;
51214;SDS011;63849;47.546;19.254;2023-03-08T13:18:43;16.48;;;10.18;;
51214;SDS011;63849;47.546;19.254;2023-03-08T13:24:00;11.23;;;8.55;;
51214;SDS011;63849;47.546;19.254;2023-03-08T13:29:21;16.65;;;10.60;;
51214;SDS011;63849;47.546;19.254;2023-03-08T13:31:54;15.80;;;9.10;;
51214;SDS011;63849;47.546;19.254;2023-03-08T13:36:56;13.10;;;8.90;;
51214;SDS011;63849;47.546;19.254;2023-03-08T13:39:29;16.75;;;9.35;;
51214;SDS011;63849;47.546;19.254;2023-03-08T13:42:06;14.70;;;9.52;;
51214;SDS011;63849;47.546;19.254;2023-03-08T13:44:35;12.65;;;7.45;;
51214;SDS011;63849;47.546;19.254;2023-03-08T13:49:49;12.15;;;6.20;;
51214;SDS011;63849;47.546;19.254;2023-03-08T13:52:21;11.30;;;5.80;;
51214;SDS011;63849;47.546;19.254;2023-03-08T13:57:38;10.70;;;7.00;;
51214;SDS011;63849;47.546;19.254;2023-03-08T14:02:57;11.75;;;6.85;;
51214;SDS011;63849;47.546;19.254;2023-03-08T14:05:39;10.00;;;6.35;;
51214;SDS011;63849;47.546;19.254;2023-03-08T14:08:17;10.55;;;7.38;;
51214;SDS011;63849;47.546;19.254;2023-03-08T14:11:12;15.55;;;8.10;;
51214;SDS011;63849;47.546;19.254;2023-03-08T14:13:39;14.35;;;10.20;;
51214;SDS011;63849;47.546;19.254;2023-03-08T14:16:08;15.95;;;9.32;;
51214;SDS011;63849;47.546;19.254;2023-03-08T14:19:11;11.05;;;7.03;;
51214;SDS011;63849;47.546;19.254;2023-03-08T14:21:48;12.15;;;6.85;;
51214;SDS011;63849;47.546;19.254;2023-03-08T14:24:35;11.18;;;6.68;;
51214;SDS011;63849;47.546;19.254;2023-03-08T14:29:29;9.93;;;6.32;;
51214;SDS011;63849;47.546;19.254;2023-03-08T14:32:04;11.18;;;7.35;;
51214;SDS011;63849;47.546;19.254;2023-03-08T14:34:36;11.57;;;6.97;;
51214;SDS011;63849;47.546;19.254;2023-03-08T14:39:36;10.27;;;7.97;;
51214;SDS011;63849;47.546;19.254;2023-03-08T14:42:19;15.05;;;10.65;;
51214;SDS011;63849;47.546;19.254;2023-03-08T14:45:02;15.77;;;9.77;;
51214;SDS011;63849;47.546;19.254;2023-03-08T14:47:32;11.07;;;6.97;;
51214;SDS011;63849;47.546;19.254;2023-03-08T14:52:33;10.05;;;6.13;;
51214;SDS011;63849;47.546;19.254;2023-03-08T14:55:01;9.25;;;5.70;;
51214;SDS011;63849;47.546;19.254;2023-03-08T14:57:41;11.10;;;6.22;;
51214;SDS011;63849;47.546;19.254;2023-03-08T15:00:10;9.38;;;6.40;;
51214;SDS011;63849;47.546;19.254;2023-03-08T15:02:38;12.20;;;6.35;;
51214;SDS011;63849;47.546;19.254;2023-03-08T15:05:04;10.45;;;6.00;;
51214;SDS011;63849;47.546;19.254;2023-03-08T15:07:33;12.40;;;8.13;;
51214;SDS011;63849;47.546;19.254;2023-03-08T15:10:00;13.43;;;7.88;;
51214;SDS011;63849;47.546;19.254;2023-03-08T15:12:29;11.25;;;7.45;;
51214;SDS011;63849;47.546;19.254;2023-03-08T15:14:54;8.57;;;6.60;;
51214;SDS011;63849;47.546;19.254;2023-03-08T15:17:20;14.80;;;9.32;;
51214;SDS011;63849;47.546;19.254;2023-03-08T15:19:46;11.50;;;8.25;;
51214;SDS011;63849;47.546;19.254;2023-03-08T15:22:12;8.45;;;6.63;;
51214;SDS011;63849;47.546;19.254;2023-03-08T15:24:39;10.80;;;6.45;;
51214;SDS011;63849;47.546;19.254;2023-03-08T15:27:05;18.42;;;5.75;;
51214;SDS011;63849;47.546;19.254;2023-03-08T15:29:32;9.93;;;6.10;;
51214;SDS011;63849;47.546;19.254;2023-03-08T15:32:00;7.75;;;5.32;;
51214;SDS011;63849;47.546;19.254;2023-03-08T15:34:26;9.38;;;6.43;;
51214;SDS011;63849;47.546;19.254;2023-03-08T15:36:53;9.68;;;6.28;;
51214;SDS011;63849;47.546;19.254;2023-03-08T15:39:19;9.05;;;6.32;;
51214;SDS011;63849;47.546;19.254;2023-03-08T15:41:46;8.30;;;6.32;;
51214;SDS011;63849;47.546;19.254;2023-03-08T15:44:12;10.95;;;6.25;;
51214;SDS011;63849;47.546;19.254;2023-03-08T15:46:38;13.98;;;6.38;;
51214;SDS011;63849;47.546;19.254;2023-03-08T15:49:04;9.32;;;6.47;;
51214;SDS011;63849;47.546;19.254;2023-03-08T15:51:31;10.88;;;6.47;;
51214;SDS011;63849;47.546;19.254;2023-03-08T15:53:58;9.43;;;6.60;;
51214;SDS011;63849;47.546;19.254;2023-03-08T15:56:25;10.80;;;7.00;;
51214;SDS011;63849;47.546;19.254;2023-03-08T15:58:51;11.90;;;7.18;;
51214;SDS011;63849;47.546;19.254;2023-03-08T16:01:19;9.50;;;6.22;;
51214;SDS011;63849;47.546;19.254;2023-03-08T16:03:52;12.40;;;7.25;;
51214;SDS011;63849;47.546;19.254;2023-03-08T16:06:19;14.63;;;8.40;;